createdAt,value
2023-02-15T00:01:41.161Z,5.69
2023-02-15T00:04:10.814Z,5.53
2023-02-15T00:06:39.889Z,5.22
2023-02-15T00:09:08.946Z,5.04
2023-02-15T00:11:50.804Z,5.10
2023-02-15T00:14:23.635Z,5.32
2023-02-15T00:16:53.491Z,5.31
2023-02-15T00:19:23.594Z,5.50
2023-02-15T00:21:52.653Z,5.01
2023-02-15T00:24:21.871Z,5.29
2023-02-15T00:26:51.422Z,5.51
2023-02-15T00:29:22.856Z,5.64
2023-02-15T00:31:51.745Z,6.05
2023-02-15T00:34:21.858Z,5.81
2023-02-15T00:36:51.573Z,5.93
2023-02-15T00:39:21.224Z,5.75
2023-02-15T00:41:50.191Z,5.86
2023-02-15T00:44:21.805Z,5.82
2023-02-15T00:46:50.377Z,5.99
2023-02-15T00:49:19.391Z,6.12
2023-02-15T00:51:48.352Z,5.86
2023-02-15T00:54:17.470Z,5.98
2023-02-15T00:56:46.499Z,5.89
2023-02-15T00:59:15.678Z,6.06
2023-02-15T01:01:45.690Z,5.73
2023-02-15T01:04:15.254Z,5.72
2023-02-15T01:06:44.289Z,6.02
2023-02-15T01:09:14.731Z,6.04
2023-02-15T01:11:43.782Z,6.01
2023-02-15T01:14:14.429Z,5.95
2023-02-15T01:16:45.434Z,5.82
2023-02-15T01:19:14.856Z,5.65
2023-02-15T01:21:43.850Z,5.75
2023-02-15T01:24:15.154Z,5.85
2023-02-15T01:26:44.947Z,5.76
2023-02-15T01:29:14.079Z,5.82
2023-02-15T01:31:42.956Z,5.87
2023-02-15T01:34:13.543Z,5.54
2023-02-15T01:36:42.618Z,5.50
2023-02-15T01:39:11.612Z,5.65
2023-02-15T01:41:40.701Z,5.94
2023-02-15T01:44:42.858Z,5.58
2023-02-15T01:47:12.091Z,5.66
2023-02-15T01:49:42.756Z,5.62
2023-02-15T01:52:13.194Z,5.62
2023-02-15T01:54:43.960Z,5.68
2023-02-15T01:57:15.004Z,5.73
2023-02-15T01:59:45.899Z,5.76
2023-02-15T02:02:16.678Z,5.79
2023-02-15T02:04:50.003Z,6.12
2023-02-15T02:07:23.168Z,6.30
2023-02-15T02:09:52.681Z,6.42
2023-02-15T02:12:26.612Z,6.46
2023-02-15T02:14:56.644Z,6.42
2023-02-15T02:17:33.338Z,6.43
2023-02-15T02:20:29.203Z,6.47
2023-02-15T02:23:22.228Z,6.49
2023-02-15T02:26:27.717Z,6.59
2023-02-15T02:29:20.898Z,6.59
2023-02-15T02:32:29.311Z,6.60
2023-02-15T02:35:02.904Z,6.03
2023-02-15T02:37:37.522Z,6.00
2023-02-15T02:40:10.711Z,6.12
2023-02-15T02:42:42.268Z,6.20
2023-02-15T02:45:15.032Z,6.25
2023-02-15T02:47:47.833Z,6.17
2023-02-15T02:50:20.847Z,6.32
2023-02-15T02:52:51.147Z,6.00
2023-02-15T02:55:23.399Z,6.19
2023-02-15T02:57:56.126Z,6.23
2023-02-15T03:00:27.177Z,6.34
2023-02-15T03:02:59.683Z,6.38
2023-02-15T03:05:32.203Z,6.08
2023-02-15T03:08:02.208Z,5.87
2023-02-15T03:10:31.864Z,5.95
2023-02-15T03:13:00.984Z,6.01
2023-02-15T03:15:53.419Z,5.97
2023-02-15T03:18:25.392Z,6.08
2023-02-15T03:20:57.595Z,6.01
2023-02-15T03:23:28.374Z,6.02
2023-02-15T03:26:01.833Z,6.12
2023-02-15T03:28:38.670Z,5.97
2023-02-15T03:31:09.714Z,5.88
2023-02-15T03:33:42.839Z,5.74
2023-02-15T03:36:20.319Z,5.88
2023-02-15T03:38:54.327Z,4.74
2023-02-15T03:41:27.629Z,5.63
2023-02-15T03:43:59.231Z,5.88
2023-02-15T03:46:32.396Z,5.89
2023-02-15T03:49:04.327Z,5.88
2023-02-15T03:51:39.482Z,5.88
2023-02-15T03:54:11.113Z,5.81
2023-02-15T03:56:41.931Z,5.78
2023-02-15T03:59:28.169Z,5.94
2023-02-15T04:02:04.100Z,5.89
2023-02-15T04:04:36.327Z,5.81
2023-02-15T04:07:08.675Z,5.89
2023-02-15T04:09:55.109Z,5.35
2023-02-15T04:12:24.369Z,5.48
2023-02-15T04:15:10.703Z,5.69
2023-02-15T04:17:39.963Z,5.82
2023-02-15T04:20:28.355Z,5.99
2023-02-15T04:23:15.832Z,5.82
2023-02-15T04:25:44.947Z,6.17
2023-02-15T04:28:13.973Z,6.31
2023-02-15T04:30:43.068Z,6.35
2023-02-15T04:33:12.093Z,6.35
2023-02-15T04:35:41.184Z,6.33
2023-02-15T04:38:11.970Z,6.40
2023-02-15T04:40:40.783Z,6.07
2023-02-15T04:43:09.811Z,6.06
2023-02-15T04:45:38.975Z,6.02
2023-02-15T04:48:08.022Z,5.70
2023-02-15T04:50:37.187Z,5.70
2023-02-15T04:53:06.269Z,4.93
2023-02-15T04:55:36.651Z,5.39
2023-02-15T04:58:05.884Z,5.62
2023-02-15T05:00:35.005Z,5.39
2023-02-15T05:03:04.226Z,5.44
2023-02-15T05:05:33.427Z,5.39
2023-02-15T05:08:02.720Z,5.16
2023-02-15T05:10:31.422Z,5.26
2023-02-15T05:13:02.152Z,5.05
2023-02-15T05:15:31.278Z,5.33
2023-02-15T05:18:00.346Z,5.45
2023-02-15T05:20:29.697Z,5.30
2023-02-15T05:22:58.731Z,5.02
2023-02-15T05:25:44.983Z,5.09
2023-02-15T05:28:23.728Z,4.92
2023-02-15T05:30:54.192Z,4.93
2023-02-15T05:33:23.367Z,5.15
2023-02-15T05:35:52.481Z,5.19
2023-02-15T05:38:21.641Z,5.37
2023-02-15T05:40:50.345Z,5.27
2023-02-15T05:43:21.294Z,5.34
2023-02-15T05:45:51.044Z,5.38
2023-02-15T05:48:21.269Z,5.38
2023-02-15T05:50:59.778Z,5.49
2023-02-15T05:53:29.434Z,5.32
2023-02-15T05:56:00.977Z,4.92
2023-02-15T05:58:32.828Z,4.95
2023-02-15T06:01:02.213Z,4.99
2023-02-15T06:03:31.400Z,5.24
2023-02-15T06:06:00.886Z,5.02
2023-02-15T06:08:30.021Z,5.22
2023-02-15T06:10:59.114Z,5.15
2023-02-15T06:13:27.823Z,5.21
2023-02-15T06:15:58.466Z,5.04
2023-02-15T06:18:27.740Z,5.19
2023-02-15T06:20:56.905Z,5.40
2023-02-15T06:23:26.203Z,4.56
2023-02-15T06:25:54.861Z,5.02
2023-02-15T06:28:23.976Z,4.69
2023-02-15T06:30:53.169Z,4.69
2023-02-15T06:33:24.185Z,4.89
2023-02-15T06:35:53.326Z,5.02
2023-02-15T06:38:24.611Z,4.77
2023-02-15T06:40:53.519Z,4.69
2023-02-15T06:43:22.522Z,5.08
2023-02-15T06:45:51.626Z,4.92
2023-02-15T06:48:20.662Z,5.12
2023-02-15T06:50:51.479Z,4.89
2023-02-15T06:53:20.624Z,4.87
2023-02-15T06:55:49.365Z,4.78
2023-02-15T06:58:18.565Z,4.73
2023-02-15T07:00:47.773Z,5.16
2023-02-15T07:03:17.117Z,5.40
2023-02-15T07:05:46.689Z,5.32
2023-02-15T07:08:17.355Z,5.41
2023-02-15T07:10:46.054Z,4.98
2023-02-15T07:13:14.406Z,3.67
2023-02-15T07:15:43.617Z,3.97
2023-02-15T07:18:12.961Z,4.21
2023-02-15T07:20:42.786Z,4.60
2023-02-15T07:23:11.826Z,4.72
2023-02-15T07:25:42.100Z,4.26
2023-02-15T07:28:11.497Z,3.49
2023-02-15T07:30:41.346Z,3.23
2023-02-15T07:33:25.659Z,3.59
2023-02-15T07:35:56.036Z,3.92
2023-02-15T07:38:24.820Z,4.39
2023-02-15T07:41:00.449Z,4.18
2023-02-15T07:43:30.730Z,3.87
2023-02-15T07:46:02.251Z,3.80
2023-02-15T07:48:31.656Z,4.14
2023-02-15T07:51:01.745Z,4.39
2023-02-15T07:53:30.564Z,3.48
2023-02-15T07:56:03.133Z,3.69
2023-02-15T07:58:45.910Z,4.27
2023-02-15T08:01:15.302Z,3.85
2023-02-15T08:03:45.370Z,3.13
2023-02-15T08:06:15.122Z,3.79
2023-02-15T08:08:44.736Z,3.89
2023-02-15T08:11:37.642Z,4.06
2023-02-15T08:14:08.344Z,3.89
2023-02-15T08:16:39.356Z,4.11
2023-02-15T08:19:10.326Z,3.99
2023-02-15T08:21:41.862Z,3.84
2023-02-15T08:24:12.142Z,3.69
2023-02-15T08:26:43.968Z,4.06
2023-02-15T08:29:13.853Z,4.25
2023-02-15T08:31:43.048Z,4.56
2023-02-15T08:34:13.723Z,4.72
2023-02-15T08:36:42.795Z,4.54
2023-02-15T08:39:11.912Z,4.69
2023-02-15T08:41:44.374Z,4.35
2023-02-15T08:44:13.653Z,3.89
2023-02-15T08:46:43.700Z,4.30
2023-02-15T08:49:15.123Z,4.62
2023-02-15T08:51:44.809Z,4.50
2023-02-15T08:54:16.623Z,2.56
2023-02-15T08:56:47.896Z,3.84
2023-02-15T08:59:18.476Z,4.03
2023-02-15T09:01:49.630Z,4.12
2023-02-15T09:04:19.114Z,4.78
2023-02-15T09:06:50.356Z,4.83
2023-02-15T09:09:20.808Z,4.79
2023-02-15T09:11:58.711Z,5.11
2023-02-15T09:14:29.431Z,5.53
2023-02-15T09:16:58.262Z,5.23
2023-02-15T09:19:27.760Z,5.44
2023-02-15T09:21:56.950Z,5.76
2023-02-15T09:24:26.234Z,5.70
2023-02-15T09:26:56.833Z,5.51
2023-02-15T09:29:25.979Z,4.98
2023-02-15T09:31:54.833Z,4.68
2023-02-15T09:34:24.844Z,4.36
2023-02-15T09:36:54.572Z,5.02
2023-02-15T09:39:25.784Z,5.00
2023-02-15T09:42:17.414Z,5.49
2023-02-15T09:45:01.749Z,4.69
2023-02-15T09:47:45.504Z,3.46
2023-02-15T09:50:19.526Z,3.68
2023-02-15T09:53:00.285Z,3.62
2023-02-15T09:55:44.539Z,4.08
2023-02-15T09:58:19.774Z,3.84
2023-02-15T10:00:53.776Z,3.31
2023-02-15T10:03:32.860Z,4.21
2023-02-15T10:06:14.816Z,4.27
2023-02-15T10:09:09.419Z,4.46
2023-02-15T10:11:55.045Z,4.22
2023-02-15T10:15:03.690Z,3.31
2023-02-15T10:17:44.201Z,3.52
2023-02-15T10:20:22.476Z,2.99
2023-02-15T10:23:03.178Z,3.51
2023-02-15T10:25:41.950Z,3.59
2023-02-15T10:28:19.277Z,4.44
2023-02-15T10:30:52.518Z,4.83
2023-02-15T10:33:37.572Z,3.89
2023-02-15T10:36:14.762Z,3.62
2023-02-15T10:38:46.175Z,4.19
2023-02-15T10:41:25.393Z,3.43
2023-02-15T10:44:09.547Z,3.64
2023-02-15T10:47:02.084Z,3.83
2023-02-15T10:49:47.941Z,4.91
2023-02-15T10:52:25.624Z,4.74
2023-02-15T10:54:59.382Z,4.74
2023-02-15T10:57:35.048Z,4.35
2023-02-15T11:00:12.372Z,3.64
2023-02-15T11:03:17.243Z,3.39
2023-02-15T11:05:56.798Z,4.42
2023-02-15T11:08:27.042Z,5.35
2023-02-15T11:10:58.980Z,3.55
2023-02-15T11:13:35.016Z,4.20
2023-02-15T11:16:07.231Z,4.24
2023-02-15T11:18:39.293Z,3.90
2023-02-15T11:21:13.367Z,4.18
2023-02-15T11:23:45.704Z,4.33
2023-02-15T11:26:18.538Z,5.13
2023-02-15T11:28:52.207Z,4.05
2023-02-15T11:31:23.999Z,3.68
2023-02-15T11:33:55.616Z,3.57
2023-02-15T11:36:28.952Z,3.58
2023-02-15T11:39:00.766Z,4.89
2023-02-15T11:41:32.618Z,5.27
2023-02-15T11:44:07.459Z,5.55
2023-02-15T11:46:36.438Z,5.32
2023-02-15T11:49:09.883Z,5.72
2023-02-15T11:51:40.358Z,4.86
2023-02-15T11:54:11.160Z,4.48
2023-02-15T11:56:40.146Z,4.60
2023-02-15T11:59:13.268Z,5.59
2023-02-15T12:01:45.141Z,5.39
2023-02-15T12:04:20.876Z,5.08
2023-02-15T12:07:02.175Z,5.98
2023-02-15T12:09:37.191Z,5.72
2023-02-15T12:12:26.881Z,6.17
2023-02-15T12:14:57.909Z,5.07
2023-02-15T12:17:29.266Z,5.06
2023-02-15T12:19:59.487Z,4.59
2023-02-15T12:22:32.726Z,5.57
2023-02-15T12:25:04.303Z,5.71
2023-02-15T12:27:35.420Z,5.47
2023-02-15T12:30:08.434Z,4.32
2023-02-15T12:32:38.704Z,5.01
2023-02-15T12:35:11.898Z,4.46
2023-02-15T12:37:42.302Z,4.41
2023-02-15T12:40:23.023Z,5.09
2023-02-15T12:42:52.129Z,5.31
2023-02-15T12:45:27.599Z,4.21
2023-02-15T12:48:19.130Z,3.70
2023-02-15T12:50:54.800Z,4.30
2023-02-15T12:53:33.665Z,4.59
2023-02-15T12:56:04.440Z,4.32
2023-02-15T12:58:33.714Z,5.01
2023-02-15T13:01:13.802Z,4.21
2023-02-15T13:03:59.944Z,5.16
2023-02-15T13:06:29.980Z,3.66
2023-02-15T13:09:02.033Z,3.70
2023-02-15T13:11:35.383Z,3.38
2023-02-15T13:14:06.166Z,3.47
2023-02-15T13:16:35.108Z,3.29
2023-02-15T13:19:06.973Z,3.37
2023-02-15T13:21:39.704Z,3.90
2023-02-15T13:24:18.361Z,4.78
2023-02-15T13:26:48.401Z,4.78
2023-02-15T13:29:21.205Z,4.09
2023-02-15T13:31:51.139Z,4.00
2023-02-15T13:34:20.880Z,4.14
2023-02-15T13:36:54.381Z,4.02
2023-02-15T13:39:31.470Z,4.70
2023-02-15T13:42:03.673Z,4.04
2023-02-15T13:44:50.852Z,4.73
2023-02-15T13:47:25.053Z,3.51
2023-02-15T13:50:05.649Z,3.83
2023-02-15T13:52:38.881Z,3.91
2023-02-15T13:55:27.176Z,3.01
2023-02-15T13:58:26.357Z,3.63
2023-02-15T14:01:02.463Z,3.08
2023-02-15T14:03:52.020Z,3.33
2023-02-15T14:06:36.740Z,4.43
2023-02-15T14:09:14.532Z,4.48
2023-02-15T14:11:49.627Z,4.66
2023-02-15T14:14:32.022Z,4.38
2023-02-15T14:17:07.488Z,3.76
2023-02-15T14:19:40.502Z,4.18
2023-02-15T14:22:15.038Z,3.93
2023-02-15T14:24:47.561Z,4.05
2023-02-15T14:27:24.606Z,4.96
2023-02-15T14:29:56.127Z,5.16
2023-02-15T14:32:30.163Z,3.92
2023-02-15T14:35:00.051Z,4.39
2023-02-15T14:37:32.097Z,3.74
2023-02-15T14:40:22.798Z,3.84
2023-02-15T14:42:56.781Z,3.20
2023-02-15T14:45:34.321Z,3.07
2023-02-15T14:48:10.612Z,3.13
2023-02-15T14:50:47.387Z,3.15
2023-02-15T14:53:27.629Z,3.64
2023-02-15T14:56:09.681Z,4.20
2023-02-15T14:58:41.214Z,4.06
2023-02-15T15:01:12.108Z,4.04
2023-02-15T15:03:46.460Z,4.59
2023-02-15T15:06:28.694Z,4.41
2023-02-15T15:09:02.084Z,4.81
2023-02-15T15:11:44.797Z,3.47
2023-02-15T15:14:39.520Z,3.63
2023-02-15T15:17:09.632Z,3.14
2023-02-15T15:20:00.731Z,3.39
2023-02-15T15:22:30.625Z,3.73
2023-02-15T15:25:00.832Z,3.96
2023-02-15T15:27:44.297Z,3.46
2023-02-15T15:31:02.304Z,4.29
2023-02-15T15:33:56.037Z,3.93
2023-02-15T15:36:43.927Z,4.13
2023-02-15T15:39:28.774Z,3.78
2023-02-15T15:42:04.247Z,3.05
2023-02-15T15:45:17.269Z,2.97
2023-02-15T15:48:07.324Z,3.13
2023-02-15T15:50:41.722Z,3.68
2023-02-15T15:53:20.070Z,3.58
2023-02-15T15:55:50.156Z,3.88
2023-02-15T15:58:20.629Z,3.65
2023-02-15T16:00:52.582Z,3.33
2023-02-15T16:03:24.406Z,3.12
2023-02-15T16:05:56.737Z,3.23
2023-02-15T16:08:31.311Z,3.64
2023-02-15T16:11:00.793Z,2.57
2023-02-15T16:13:30.077Z,3.11
2023-02-15T16:15:59.392Z,3.06
2023-02-15T16:18:29.799Z,2.90
2023-02-15T16:21:00.557Z,3.57
2023-02-15T16:23:55.672Z,3.34
2023-02-15T16:26:41.853Z,3.35
2023-02-15T16:29:17.775Z,3.55
2023-02-15T16:32:00.982Z,3.22
2023-02-15T16:34:33.533Z,3.07
2023-02-15T16:37:18.222Z,2.74
2023-02-15T16:39:49.134Z,3.44
2023-02-15T16:42:19.387Z,3.11
2023-02-15T16:44:48.361Z,2.43
2023-02-15T16:47:20.144Z,2.68
2023-02-15T16:49:50.808Z,2.89
2023-02-15T16:52:24.399Z,3.31
2023-02-15T16:54:57.295Z,3.08
2023-02-15T16:57:29.987Z,2.41
2023-02-15T17:00:03.322Z,2.64
2023-02-15T17:02:55.003Z,2.73
2023-02-15T17:05:24.533Z,2.05
2023-02-15T17:08:13.632Z,3.13
2023-02-15T17:10:46.723Z,2.94
2023-02-15T17:13:17.044Z,2.04
2023-02-15T17:15:46.436Z,2.68
2023-02-15T17:18:18.956Z,2.42
2023-02-15T17:20:48.995Z,2.38
2023-02-15T17:23:25.614Z,2.87
2023-02-15T17:25:54.690Z,1.94
2023-02-15T17:28:26.352Z,2.45
2023-02-15T17:30:56.257Z,2.89
2023-02-15T17:33:30.104Z,2.84
2023-02-15T17:36:11.411Z,3.19
2023-02-15T17:38:43.419Z,3.67
2023-02-15T17:41:12.584Z,2.51
2023-02-15T17:43:43.202Z,2.93
2023-02-15T17:46:13.824Z,3.21
2023-02-15T17:48:44.044Z,2.63
2023-02-15T17:51:14.876Z,3.07
2023-02-15T17:54:05.889Z,3.24
2023-02-15T17:56:34.244Z,2.29
2023-02-15T17:59:07.749Z,1.35
2023-02-15T18:01:54.560Z,2.25
2023-02-15T18:04:41.428Z,2.58
2023-02-15T18:07:28.545Z,2.82
2023-02-15T18:10:16.289Z,2.59
2023-02-15T18:12:45.527Z,2.38
2023-02-15T18:15:14.804Z,2.73
2023-02-15T18:17:45.280Z,2.97
2023-02-15T18:20:20.180Z,2.96
2023-02-15T18:22:49.099Z,3.07
2023-02-15T18:25:24.318Z,2.87
2023-02-15T18:27:55.223Z,3.74
2023-02-15T18:30:26.888Z,3.05
2023-02-15T18:32:58.213Z,3.13
2023-02-15T18:35:28.895Z,2.02
2023-02-15T18:37:57.901Z,3.37
2023-02-15T18:40:29.672Z,3.36
2023-02-15T18:42:59.154Z,3.25
2023-02-15T18:45:33.076Z,4.13
2023-02-15T18:48:02.914Z,4.38
2023-02-15T18:50:35.394Z,4.10
2023-02-15T18:53:05.528Z,3.54
2023-02-15T18:55:36.821Z,3.82
2023-02-15T18:58:05.965Z,3.88
2023-02-15T19:00:36.382Z,3.91
2023-02-15T19:03:05.812Z,3.39
2023-02-15T19:05:35.551Z,3.66
2023-02-15T19:08:05.168Z,3.43
2023-02-15T19:10:36.332Z,3.33
2023-02-15T19:13:05.371Z,3.75
2023-02-15T19:15:34.612Z,3.41
2023-02-15T19:18:03.706Z,3.74
2023-02-15T19:20:34.494Z,3.47
2023-02-15T19:23:03.732Z,3.79
2023-02-15T19:25:37.701Z,3.88
2023-02-15T19:28:15.802Z,3.90
2023-02-15T19:30:44.970Z,4.10
2023-02-15T19:33:18.407Z,4.10
2023-02-15T19:35:49.085Z,3.86
2023-02-15T19:38:20.532Z,4.33
2023-02-15T19:40:49.528Z,4.67
2023-02-15T19:43:26.311Z,4.00
2023-02-15T19:45:55.763Z,3.90
2023-02-15T19:48:25.033Z,4.13
2023-02-15T19:50:55.522Z,4.60
2023-02-15T19:53:25.762Z,3.55
2023-02-15T19:55:55.056Z,4.28
2023-02-15T19:58:25.637Z,3.76
2023-02-15T20:00:54.871Z,4.14
2023-02-15T20:03:24.083Z,3.99
2023-02-15T20:05:53.432Z,4.25
2023-02-15T20:08:23.759Z,3.89
2023-02-15T20:10:52.552Z,3.87
2023-02-15T20:13:22.180Z,2.62
2023-02-15T20:15:53.324Z,3.29
2023-02-15T20:18:22.878Z,3.33
2023-02-15T20:20:53.347Z,3.93
2023-02-15T20:23:25.269Z,3.91
2023-02-15T20:25:54.452Z,3.87
2023-02-15T20:28:27.240Z,3.14
2023-02-15T20:30:57.983Z,3.01
2023-02-15T20:33:27.168Z,2.70
2023-02-15T20:35:56.416Z,3.64
2023-02-15T20:38:28.308Z,3.33
2023-02-15T20:41:15.262Z,3.06
2023-02-15T20:43:44.580Z,3.84
2023-02-15T20:46:15.180Z,3.75
2023-02-15T20:48:44.300Z,4.00
2023-02-15T20:51:17.563Z,3.82
2023-02-15T20:53:47.220Z,3.79
2023-02-15T20:56:19.876Z,3.87
2023-02-15T20:58:48.724Z,2.88
2023-02-15T21:01:20.380Z,3.38
2023-02-15T21:03:53.797Z,3.45
2023-02-15T21:06:22.966Z,3.57
2023-02-15T21:08:52.075Z,3.83
2023-02-15T21:11:22.050Z,4.23
2023-02-15T21:13:51.814Z,3.93
2023-02-15T21:16:22.486Z,4.18
2023-02-15T21:18:51.638Z,3.65
2023-02-15T21:21:25.132Z,3.58
2023-02-15T21:23:54.722Z,3.74
2023-02-15T21:26:24.175Z,3.48
2023-02-15T21:28:53.122Z,3.43
2023-02-15T21:31:25.696Z,3.89
2023-02-15T21:33:55.019Z,3.93
2023-02-15T21:36:26.893Z,4.05
2023-02-15T21:38:56.180Z,3.89
2023-02-15T21:41:43.010Z,4.05
2023-02-15T21:44:34.796Z,3.92
2023-02-15T21:47:23.055Z,3.67
2023-02-15T21:49:53.055Z,3.40
2023-02-15T21:52:22.958Z,3.72
2023-02-15T21:54:51.999Z,3.44
2023-02-15T21:57:22.368Z,3.51
2023-02-15T21:59:51.588Z,3.44
2023-02-15T22:02:32.491Z,3.76
2023-02-15T22:05:01.457Z,3.64
2023-02-15T22:07:30.438Z,3.75
2023-02-15T22:09:59.690Z,3.49
2023-02-15T22:12:28.699Z,3.58
2023-02-15T22:14:57.760Z,3.34
2023-02-15T22:17:29.175Z,3.50
2023-02-15T22:20:00.955Z,3.17
2023-02-15T22:22:30.922Z,2.95
2023-02-15T22:24:59.975Z,2.76
2023-02-15T22:27:31.675Z,2.49
2023-02-15T22:30:00.895Z,2.56
2023-02-15T22:32:30.033Z,2.27
2023-02-15T22:35:00.598Z,2.61
2023-02-15T22:37:28.969Z,2.76
2023-02-15T22:39:57.993Z,1.85
2023-02-15T22:42:28.794Z,2.15
2023-02-15T22:44:58.744Z,2.46
2023-02-15T22:47:29.091Z,2.66
2023-02-15T22:49:57.714Z,2.69
2023-02-15T22:52:28.196Z,2.17
2023-02-15T22:54:57.208Z,1.72
2023-02-15T22:57:30.852Z,1.97
2023-02-15T23:00:01.546Z,2.72
2023-02-15T23:02:30.811Z,1.90
2023-02-15T23:04:59.763Z,1.98
2023-02-15T23:07:30.382Z,2.18
2023-02-15T23:09:59.460Z,2.31
2023-02-15T23:12:50.742Z,2.16
2023-02-15T23:15:19.893Z,2.04
2023-02-15T23:17:48.937Z,1.67
2023-02-15T23:20:18.059Z,2.43
2023-02-15T23:22:48.189Z,1.92
2023-02-15T23:25:21.908Z,1.30
2023-02-15T23:27:59.793Z,1.61
2023-02-15T23:30:29.002Z,1.51
2023-02-15T23:32:58.686Z,1.78
2023-02-15T23:35:27.722Z,1.35
2023-02-15T23:37:57.813Z,1.59
2023-02-15T23:40:44.435Z,1.27
2023-02-15T23:43:21.052Z,1.38
2023-02-15T23:45:50.088Z,0.79
2023-02-15T23:48:33.665Z,1.45
2023-02-15T23:51:03.800Z,1.19
2023-02-15T23:53:34.900Z,0.89
2023-02-15T23:56:04.090Z,1.11
2023-02-15T23:58:37.823Z,1.43
